NCAR-RAP Real-Time Weather Data

Output produced by METARs form (14 October 2019  22:49 UTC)
found at http://weather.rap.ucar.edu/surface/
 
KCVG 142152Z 27008KT 10SM CLR 19/00 A3007 RMK AO2 SLP178 T01890000
KCVG 142052Z 25009KT 10SM CLR 20/00 A3006 RMK AO2 SLP176 T02000000 55009
KCVG 141952Z 28010G18KT 230V310 10SM CLR 21/01 A3006 RMK AO2 SLP175 T02060006
KCVG 141852Z 26007G20KT 10SM CLR 19/01 A3007 RMK AO2 SLP179 T01940006
KCVG 141752Z 26007G16KT 10SM CLR 18/00 A3009 RMK AO2 SLP186 T01830000 10189 20056 58005
KCVG 141652Z 25008G15KT 10SM CLR 17/01 A3010 RMK AO2 SLP190 T01720006
KCVG 141552Z 24008KT 10SM CLR 17/00 A3011 RMK AO2 SLP192 T01670000
KCVG 141452Z 24006KT 10SM CLR 13/03 A3011 RMK AO2 SLP193 T01330033 51017
KCVG 141352Z 25004KT 10SM CLR 11/04 A3010 RMK AO2 SLP192 T01060044
KCVG 141252Z 17003KT 10SM CLR 07/04 A3008 RMK AO2 SLP185 T00670044
KCVG 141152Z 22004KT 10SM CLR 07/03 A3006 RMK AO2 SLP176 T00670028 10094 20061 53018
KCVG 141052Z 23005KT 10SM CLR 07/03 A3004 RMK AO2 SLP168 T00720028
KCVG 140952Z 24004KT 10SM CLR 07/03 A3002 RMK AO2 SLP161 T00720028
KCVG 140852Z 23004KT 10SM CLR 08/03 A3000 RMK AO2 SLP154 T00830033 53007
KCVG 140752Z 20005KT 10SM CLR 08/03 A2999 RMK AO2 SLP151 T00780028
KCVG 140652Z 20006KT 10SM CLR 08/03 A2998 RMK AO2 SLP149 T00780028
KCVG 140552Z 20006KT 10SM CLR 09/03 A2998 RMK AO2 SLP148 T00940033 10144 20083 53006
KCVG 140452Z 21004KT 10SM CLR 10/03 A2997 RMK AO2 SLP145 T01000028 402000011
KCVG 140352Z 20005KT 10SM CLR 11/03 A2997 RMK AO2 SLP145 T01110028
KCVG 140252Z 21005KT 10SM CLR 12/03 A2996 RMK AO2 SLP143 T01170028 51008
KCVG 140152Z 19008KT 10SM CLR 12/03 A2995 RMK AO2 SLP140 T01170028
KCVG 140052Z 20006KT 10SM CLR 13/01 A2995 RMK AO2 SLP142 T01330011
KCVG 132352Z 21005KT 10SM CLR 14/01 A2994 RMK AO2 SLP136 T01440006 10200 20144 53006
KCVG 132252Z 21007KT 10SM CLR 17/00 A2992 RMK AO2 SLP132 T01720000
KCVG 132152Z 21011KT 10SM CLR 19/00 A2992 RMK AO2 SLP131 T01940000
KCVG 132052Z 22007KT 180V240 10SM CLR 20/M01 A2992 RMK AO2 SLP128 T02001006 56016
KCVG 131952Z 21012KT 10SM CLR 20/00 A2992 RMK AO2 SLP130 T02000000
KCVG 131852Z 22009KT 160V260 10SM CLR 19/01 A2994 RMK AO2 SLP135 T01890011
KCVG 131752Z 20009KT 10SM FEW150 18/02 A2997 RMK AO2 SLP145 T01780017 10178 20017 58024
KCVG 131652Z 23011KT 10SM FEW150 16/01 A3000 RMK AO2 SLP156 T01560006
KCVG 131552Z 22009KT 10SM FEW150 13/02 A3002 RMK AO2 SLP166 T01330017
KCVG 131452Z 23009KT 10SM FEW150 FEW200 SCT250 12/02 A3004 RMK AO2 SLP171 T01170017 53000
KCVG 131352Z 20008KT 10SM FEW150 FEW200 SCT250 09/02 A3003 RMK AO2 SLP170 T00890022
KCVG 131252Z 19007KT 10SM FEW150 SCT200 SCT250 04/01 A3004 RMK AO2 SLP172 T00440006
KCVG 131152Z 00000KT 10SM FEW150 FEW250 03/00 A3004 RMK AO2 SLP173 T00330000 10056 20011 55002
KCVG 131052Z 19006KT 10SM FEW150 SCT250 02/M01 A3003 RMK AO2 SLP171 T00171011
KCVG 130952Z 18006KT 10SM FEW250 02/M01 A3003 RMK AO2 SLP170 T00221006
KCVG 130852Z 00000KT 10SM CLR 04/00 A3004 RMK AO2 SLP172 T00390000 55003
KCVG 130752Z 20007KT 10SM FEW250 04/M01 A3003 RMK AO2 SLP170 T00441006
KCVG 130652Z 19007KT 10SM FEW250 03/00 A3004 RMK AO2 SLP171 T00330000
KCVG 130552Z 19006KT 10SM FEW250 04/00 A3005 RMK AO2 SLP176 T00390000 10094 20033 56008
KCVG 130452Z 18005KT 10SM CLR 04/01 A3006 RMK AO2 SLP178 T00440011 401330022
KCVG 130352Z 19005KT 10SM CLR 06/00 A3006 RMK AO2 SLP181 T00560000
KCVG 130252Z 18005KT 10SM CLR 06/01 A3007 RMK AO2 SLP184 T00560006 58003
KCVG 130152Z 18005KT 10SM CLR 07/00 A3007 RMK AO2 SLP186 T00670000
KCVG 130052Z 18004KT 10SM CLR 08/M01 A3009 RMK AO2 SLP189 T00831006
KCVG 122352Z 19005KT 10SM CLR 09/M01 A3008 RMK AO2 SLP188 T00891006 10133 20083 56006
KCVG 122252Z 20006KT 10SM FEW250 11/M02 A3008 RMK AO2 SLP188 T01061017